createdAt,value
2022-09-03T00:00:25.492Z,25.37
2022-09-03T00:03:05.537Z,25.38
2022-09-03T00:05:42.710Z,25.37
2022-09-03T00:08:21.562Z,25.34
2022-09-03T00:10:57.652Z,25.32
2022-09-03T00:13:33.637Z,25.30
2022-09-03T00:16:10.357Z,25.29
2022-09-03T00:18:48.678Z,25.29
2022-09-03T00:21:38.598Z,25.28
2022-09-03T00:24:14.440Z,25.26
2022-09-03T00:26:51.945Z,25.23
2022-09-03T00:29:25.426Z,25.22
2022-09-03T00:31:56.453Z,25.21
2022-09-03T00:34:35.400Z,25.16
2022-09-03T00:37:06.399Z,25.15
2022-09-03T00:39:46.070Z,25.12
2022-09-03T00:42:40.432Z,25.11
2022-09-03T00:45:25.416Z,25.11
2022-09-03T00:48:13.664Z,25.12
2022-09-03T00:51:03.979Z,25.15
2022-09-03T00:53:40.118Z,25.13
2022-09-03T00:56:21.538Z,25.16
2022-09-03T00:59:03.360Z,25.17
2022-09-03T01:01:47.989Z,25.17
2022-09-03T01:04:49.613Z,25.16
2022-09-03T01:07:33.347Z,25.15
2022-09-03T01:10:17.630Z,25.15
2022-09-03T01:12:56.318Z,25.14
2022-09-03T01:15:37.148Z,25.13
2022-09-03T01:18:21.415Z,25.13
2022-09-03T01:21:09.741Z,25.14
2022-09-03T01:24:09.094Z,25.12
2022-09-03T01:27:05.884Z,25.11
2022-09-03T01:29:41.075Z,25.09
2022-09-03T01:32:25.070Z,25.09
2022-09-03T01:35:02.940Z,25.07
2022-09-03T01:37:43.089Z,25.05
2022-09-03T01:40:24.397Z,25.01
2022-09-03T01:43:07.565Z,24.99
2022-09-03T01:45:51.585Z,24.99
2022-09-03T01:48:41.119Z,24.98
2022-09-03T01:51:20.100Z,24.98
2022-09-03T01:54:21.938Z,24.95
2022-09-03T01:57:36.924Z,24.93
2022-09-03T02:00:13.489Z,24.91
2022-09-03T02:02:47.789Z,24.91
2022-09-03T02:05:24.247Z,24.89
2022-09-03T02:08:00.238Z,24.88
2022-09-03T02:10:39.757Z,24.86
2022-09-03T02:13:15.536Z,24.82
2022-09-03T02:15:50.100Z,24.81
2022-09-03T02:18:24.446Z,24.78
2022-09-03T02:20:57.033Z,24.77
2022-09-03T02:23:28.999Z,24.72
2022-09-03T02:26:02.184Z,24.73
2022-09-03T02:28:33.901Z,24.71
2022-09-03T02:31:04.758Z,24.71
2022-09-03T02:33:40.433Z,24.70
2022-09-03T02:36:14.356Z,24.67
2022-09-03T02:38:46.359Z,24.64
2022-09-03T02:41:17.901Z,24.63
2022-09-03T02:43:53.114Z,24.62
2022-09-03T02:46:28.516Z,24.62
2022-09-03T02:48:59.201Z,24.61
2022-09-03T02:51:32.902Z,24.60
2022-09-03T02:54:04.118Z,24.59
2022-09-03T02:56:35.316Z,24.57
2022-09-03T02:59:07.989Z,24.54
2022-09-03T03:01:39.157Z,24.56
2022-09-03T03:04:12.985Z,24.56
2022-09-03T03:06:43.798Z,24.55
2022-09-03T03:09:19.507Z,24.52
2022-09-03T03:11:51.422Z,24.51
2022-09-03T03:14:22.736Z,24.47
2022-09-03T03:16:53.506Z,24.46
2022-09-03T03:19:24.317Z,24.45
2022-09-03T03:21:54.996Z,24.43
2022-09-03T03:24:25.703Z,24.41
2022-09-03T03:26:59.565Z,24.39
2022-09-03T03:29:30.372Z,24.38
2022-09-03T03:32:01.211Z,24.37
2022-09-03T03:34:31.899Z,24.37
2022-09-03T03:37:02.657Z,24.34
2022-09-03T03:39:33.336Z,24.35
2022-09-03T03:42:04.167Z,24.34
2022-09-03T03:44:34.929Z,24.34
2022-09-03T03:47:06.311Z,24.33
2022-09-03T03:49:37.064Z,24.32
2022-09-03T03:52:07.788Z,24.31
2022-09-03T03:54:39.256Z,24.30
2022-09-03T03:57:09.992Z,24.28
2022-09-03T03:59:40.663Z,24.27
2022-09-03T04:02:11.514Z,24.27
2022-09-03T04:04:42.621Z,24.30
2022-09-03T04:07:13.370Z,24.29
2022-09-03T04:09:44.073Z,24.31
2022-09-03T04:12:15.346Z,24.31
2022-09-03T04:14:46.077Z,24.30
2022-09-03T04:17:16.756Z,24.29
2022-09-03T04:19:48.255Z,24.28
2022-09-03T04:22:20.703Z,24.27
2022-09-03T04:24:51.386Z,24.26
2022-09-03T04:27:22.067Z,24.24
2022-09-03T04:29:52.701Z,24.22
2022-09-03T04:32:41.450Z,24.21
2022-09-03T04:35:12.739Z,24.19
2022-09-03T04:37:43.403Z,24.19
2022-09-03T04:40:14.889Z,24.17
2022-09-03T04:42:45.668Z,24.16
2022-09-03T04:45:18.914Z,24.15
2022-09-03T04:47:59.278Z,24.14
2022-09-03T04:50:31.417Z,24.15
2022-09-03T04:53:07.981Z,24.16
2022-09-03T04:55:39.751Z,24.19
2022-09-03T04:58:10.383Z,24.19
2022-09-03T05:00:41.829Z,24.24
2022-09-03T05:03:12.652Z,24.25
2022-09-03T05:05:43.436Z,24.28
2022-09-03T05:08:14.249Z,24.31
2022-09-03T05:10:44.989Z,24.33
2022-09-03T05:13:15.912Z,24.33
2022-09-03T05:15:47.369Z,24.31
2022-09-03T05:18:18.024Z,24.32
2022-09-03T05:20:48.703Z,24.33
2022-09-03T05:23:19.929Z,24.33
2022-09-03T05:25:59.561Z,24.33
2022-09-03T05:28:29.806Z,24.32
2022-09-03T05:31:06.288Z,24.30
2022-09-03T05:33:39.412Z,24.32
2022-09-03T05:36:12.371Z,24.33
2022-09-03T05:38:44.124Z,24.36
2022-09-03T05:41:16.891Z,24.35
2022-09-03T05:43:55.258Z,24.35
2022-09-03T05:46:31.885Z,24.35
2022-09-03T05:49:04.381Z,24.36
2022-09-03T05:51:36.163Z,24.36
2022-09-03T05:54:08.641Z,24.40
2022-09-03T05:56:41.446Z,24.44
2022-09-03T05:59:13.883Z,24.49
2022-09-03T06:01:50.994Z,24.52
2022-09-03T06:04:23.258Z,24.55
2022-09-03T06:06:54.377Z,24.57
2022-09-03T06:09:25.568Z,24.59
2022-09-03T06:11:57.529Z,24.59
2022-09-03T06:14:30.142Z,24.58
2022-09-03T06:17:01.075Z,24.59
2022-09-03T06:19:32.369Z,24.59
2022-09-03T06:22:03.085Z,24.60
2022-09-03T06:24:33.781Z,24.63
2022-09-03T06:27:05.374Z,24.64
2022-09-03T06:29:37.122Z,24.65
2022-09-03T06:32:08.348Z,24.65
2022-09-03T06:34:39.090Z,24.68
2022-09-03T06:37:09.880Z,24.72
2022-09-03T06:39:40.635Z,24.71
2022-09-03T06:42:12.397Z,24.70
2022-09-03T06:44:45.370Z,24.69
2022-09-03T06:47:16.253Z,24.69
2022-09-03T06:49:47.101Z,24.70
2022-09-03T06:52:17.802Z,24.70
2022-09-03T06:54:49.044Z,24.70
2022-09-03T06:57:19.820Z,24.70
2022-09-03T06:59:50.896Z,24.72
2022-09-03T07:02:23.100Z,24.71
2022-09-03T07:04:53.874Z,24.70
2022-09-03T07:07:25.137Z,24.70
2022-09-03T07:09:55.892Z,24.70
2022-09-03T07:12:26.703Z,24.70
2022-09-03T07:14:57.392Z,24.69
2022-09-03T07:17:28.074Z,24.70
2022-09-03T07:19:58.924Z,24.72
2022-09-03T07:22:31.733Z,24.72
2022-09-03T07:25:02.882Z,24.68
2022-09-03T07:27:35.734Z,24.69
2022-09-03T07:30:10.350Z,24.71
2022-09-03T07:32:41.763Z,24.72
2022-09-03T07:35:13.152Z,24.70
2022-09-03T07:37:45.468Z,24.72
2022-09-03T07:40:19.156Z,24.76
2022-09-03T07:42:55.065Z,24.79
2022-09-03T07:45:27.926Z,24.82
2022-09-03T07:47:58.872Z,24.83
2022-09-03T07:50:33.075Z,24.85
2022-09-03T07:53:03.898Z,24.88
2022-09-03T07:55:34.656Z,24.91
2022-09-03T07:58:06.117Z,24.93
2022-09-03T08:00:38.773Z,24.94
2022-09-03T08:03:10.866Z,24.96
2022-09-03T08:05:41.677Z,24.99
2022-09-03T08:08:15.545Z,25.03
2022-09-03T08:10:47.858Z,25.06
2022-09-03T08:13:18.699Z,25.09
2022-09-03T08:16:00.641Z,25.11
2022-09-03T08:18:38.114Z,25.11
2022-09-03T08:21:12.402Z,25.10
2022-09-03T08:23:44.817Z,25.12
2022-09-03T08:26:16.767Z,25.09
2022-09-03T08:28:48.049Z,25.10
2022-09-03T08:31:25.181Z,25.15
2022-09-03T08:33:57.455Z,25.18
2022-09-03T08:36:30.557Z,25.18
2022-09-03T08:39:04.345Z,25.22
2022-09-03T08:41:50.453Z,25.25
2022-09-03T08:44:29.486Z,25.28
2022-09-03T08:47:07.401Z,25.31
2022-09-03T08:49:49.757Z,25.28
2022-09-03T08:52:30.998Z,25.22
2022-09-03T08:55:15.042Z,25.18
2022-09-03T08:57:49.457Z,25.19
2022-09-03T09:00:21.079Z,25.23
2022-09-03T09:03:01.587Z,25.29
2022-09-03T09:05:42.845Z,25.33
2022-09-03T09:08:22.580Z,25.36
2022-09-03T09:11:03.945Z,25.39
2022-09-03T09:13:42.683Z,25.40
2022-09-03T09:16:20.954Z,25.42
2022-09-03T09:19:03.882Z,25.42
2022-09-03T09:21:41.393Z,25.42
2022-09-03T09:24:23.572Z,25.42
2022-09-03T09:26:59.963Z,25.42
2022-09-03T09:29:34.100Z,25.43
2022-09-03T09:32:08.567Z,25.49
2022-09-03T09:34:41.440Z,25.52
2022-09-03T09:37:14.490Z,25.55
2022-09-03T09:39:58.847Z,25.58
2022-09-03T09:42:31.688Z,25.61
2022-09-03T09:45:12.466Z,25.65
2022-09-03T09:47:43.790Z,25.67
2022-09-03T09:50:25.118Z,25.70
2022-09-03T09:53:08.780Z,25.75
2022-09-03T09:55:49.486Z,25.79
2022-09-03T09:58:23.837Z,25.85
2022-09-03T10:01:05.355Z,25.86
2022-09-03T10:03:37.499Z,25.88
2022-09-03T10:06:28.383Z,25.89
2022-09-03T10:09:11.733Z,25.92
2022-09-03T10:11:45.733Z,25.96
2022-09-03T10:14:24.327Z,25.98
2022-09-03T10:17:04.045Z,25.99
2022-09-03T10:20:07.544Z,26.01
2022-09-03T10:22:56.436Z,26.03
2022-09-03T10:25:33.058Z,26.06
2022-09-03T10:28:04.263Z,26.11
2022-09-03T10:30:48.915Z,26.15
2022-09-03T10:33:27.537Z,26.19
2022-09-03T10:36:08.700Z,26.24
2022-09-03T10:38:41.384Z,26.25
2022-09-03T10:41:25.380Z,26.26
2022-09-03T10:44:12.416Z,26.26
2022-09-03T10:46:55.929Z,26.29
2022-09-03T10:49:43.695Z,26.34
2022-09-03T10:52:24.988Z,26.38
2022-09-03T10:55:08.132Z,26.35
2022-09-03T10:57:47.131Z,26.33
2022-09-03T11:00:20.264Z,26.32
2022-09-03T11:03:30.206Z,26.30
2022-09-03T11:06:06.543Z,26.30
2022-09-03T11:08:44.308Z,26.33
2022-09-03T11:11:20.711Z,26.34
2022-09-03T11:13:56.564Z,26.37
2022-09-03T11:16:32.362Z,26.39
2022-09-03T11:19:08.280Z,26.37
2022-09-03T11:21:41.989Z,26.38
2022-09-03T11:24:17.468Z,26.40
2022-09-03T11:26:54.387Z,26.41
2022-09-03T11:29:32.748Z,26.43
2022-09-03T11:32:11.070Z,26.44
2022-09-03T11:34:50.445Z,26.45
2022-09-03T11:37:24.350Z,26.45
2022-09-03T11:40:01.161Z,26.48
2022-09-03T11:42:37.041Z,26.48
2022-09-03T11:45:39.225Z,26.49
2022-09-03T11:48:36.069Z,26.50
2022-09-03T11:51:19.146Z,26.50
2022-09-03T11:53:59.886Z,26.49
2022-09-03T11:56:32.427Z,26.48
2022-09-03T11:59:07.547Z,26.47
2022-09-03T12:01:41.136Z,26.50
2022-09-03T12:04:18.284Z,26.55
2022-09-03T12:07:12.796Z,26.57
2022-09-03T12:10:14.373Z,26.59
2022-09-03T12:12:57.580Z,26.59
2022-09-03T12:15:45.659Z,26.62
2022-09-03T12:18:22.709Z,26.62
2022-09-03T12:21:06.346Z,26.65
2022-09-03T12:23:42.773Z,26.65
2022-09-03T12:26:15.956Z,26.66
2022-09-03T12:28:49.872Z,26.66
2022-09-03T12:31:25.487Z,26.67
2022-09-03T12:33:59.140Z,26.68
2022-09-03T12:36:40.434Z,26.70
2022-09-03T12:39:15.619Z,26.70
2022-09-03T12:42:01.521Z,26.70
2022-09-03T12:44:35.029Z,26.71
2022-09-03T12:50:08.033Z,26.74
2022-09-03T12:52:43.192Z,26.74
2022-09-03T12:55:28.670Z,26.76
2022-09-03T12:58:09.299Z,26.77
2022-09-03T13:00:48.236Z,26.79
2022-09-03T13:03:26.120Z,26.82
2022-09-03T13:06:00.034Z,26.84
2022-09-03T13:08:33.562Z,26.86
2022-09-03T13:11:07.073Z,26.86
2022-09-03T13:13:40.779Z,26.89
2022-09-03T13:16:31.105Z,26.91
2022-09-03T13:19:09.499Z,26.93
2022-09-03T13:21:48.273Z,26.95
2022-09-03T13:24:40.501Z,26.97
2022-09-03T13:27:20.356Z,27.01
2022-09-03T13:30:07.117Z,27.03
2022-09-03T13:32:51.310Z,27.04
2022-09-03T13:35:30.681Z,27.05
2022-09-03T13:38:10.766Z,27.05
2022-09-03T13:40:48.632Z,27.06
2022-09-03T13:43:28.549Z,27.06
2022-09-03T13:46:04.483Z,27.05
2022-09-03T13:48:58.797Z,27.05
2022-09-03T13:51:33.948Z,27.06
2022-09-03T13:54:31.016Z,27.07
2022-09-03T13:57:10.468Z,27.06
2022-09-03T13:59:52.753Z,27.06
2022-09-03T14:02:40.264Z,27.06
2022-09-03T14:05:17.902Z,27.07
2022-09-03T14:08:03.524Z,27.14
2022-09-03T14:10:52.502Z,27.08
2022-09-03T14:13:32.170Z,27.07
2022-09-03T14:16:09.979Z,27.06
2022-09-03T14:18:50.095Z,27.13
2022-09-03T14:21:26.408Z,27.19
2022-09-03T14:24:05.239Z,27.19
2022-09-03T14:26:40.015Z,27.21
2022-09-03T14:29:18.665Z,27.26
2022-09-03T14:32:09.350Z,27.27
2022-09-03T14:34:53.530Z,27.20
2022-09-03T14:37:49.617Z,27.15
2022-09-03T14:40:26.706Z,27.13
2022-09-03T14:43:13.501Z,27.15
2022-09-03T14:46:20.077Z,27.18
2022-09-03T14:49:13.289Z,27.19
2022-09-03T14:52:01.391Z,27.21
2022-09-03T14:54:44.343Z,27.22
2022-09-03T14:57:31.880Z,27.23
2022-09-03T15:00:11.994Z,27.26
2022-09-03T15:02:53.327Z,27.29
2022-09-03T15:05:43.580Z,27.27
2022-09-03T15:08:29.170Z,27.30
2022-09-03T15:11:17.021Z,27.33
2022-09-03T15:13:53.979Z,27.36
2022-09-03T15:16:52.883Z,27.40
2022-09-03T15:19:58.905Z,27.44
2022-09-03T15:22:50.832Z,27.47
2022-09-03T15:25:35.480Z,27.51
2022-09-03T15:28:20.851Z,27.54
2022-09-03T15:30:59.622Z,27.57
2022-09-03T15:33:41.021Z,27.59
2022-09-03T15:36:19.271Z,27.60
2022-09-03T15:38:57.919Z,27.62
2022-09-03T15:41:41.582Z,27.64
2022-09-03T15:44:20.107Z,27.66
2022-09-03T15:47:05.359Z,27.67
2022-09-03T15:49:56.054Z,27.67
2022-09-03T15:52:51.801Z,27.69
2022-09-03T15:55:35.196Z,27.69
2022-09-03T15:58:25.258Z,27.66
2022-09-03T16:01:02.103Z,27.61
2022-09-03T16:03:46.864Z,27.54
2022-09-03T16:06:38.484Z,27.48
2022-09-03T16:09:26.693Z,27.43
2022-09-03T16:12:05.958Z,27.42
2022-09-03T16:14:43.017Z,27.39
2022-09-03T16:17:27.481Z,27.36
2022-09-03T16:20:04.792Z,27.33
2022-09-03T16:22:44.087Z,27.32
2022-09-03T16:25:20.130Z,27.31
2022-09-03T16:28:08.076Z,27.30
2022-09-03T16:30:53.955Z,27.30
2022-09-03T16:33:36.778Z,27.29
2022-09-03T16:36:21.733Z,27.26
2022-09-03T16:39:00.496Z,27.23
2022-09-03T16:41:36.988Z,27.21
2022-09-03T16:44:14.471Z,27.21
2022-09-03T16:46:51.803Z,27.22
2022-09-03T16:49:40.858Z,27.21
2022-09-03T16:52:38.655Z,27.19
2022-09-03T16:55:23.620Z,27.18
2022-09-03T16:58:09.784Z,27.19
2022-09-03T17:00:55.878Z,27.18
2022-09-03T17:03:49.840Z,27.16
2022-09-03T17:06:41.490Z,27.15
2022-09-03T17:09:20.261Z,27.17
2022-09-03T17:12:05.445Z,27.15
2022-09-03T17:14:56.561Z,27.15
2022-09-03T17:17:49.884Z,27.16
2022-09-03T17:20:29.117Z,27.16
2022-09-03T17:23:14.477Z,27.17
2022-09-03T17:25:55.665Z,27.16
2022-09-03T17:28:35.470Z,27.16
2022-09-03T17:31:18.910Z,27.17
2022-09-03T17:34:04.912Z,27.17
2022-09-03T17:36:40.054Z,27.18
2022-09-03T17:39:33.839Z,27.18
2022-09-03T17:42:13.511Z,27.18
2022-09-03T17:45:00.699Z,27.17
2022-09-03T17:47:52.229Z,27.17
2022-09-03T17:50:23.989Z,27.16
2022-09-03T17:52:55.612Z,27.15
2022-09-03T17:55:30.477Z,27.12
2022-09-03T17:58:10.597Z,27.11
2022-09-03T18:00:47.576Z,27.12
2022-09-03T18:03:25.421Z,27.13
2022-09-03T18:06:04.443Z,27.11
2022-09-03T18:08:46.505Z,27.09
2022-09-03T18:11:30.339Z,27.07
2022-09-03T18:14:16.658Z,27.03
2022-09-03T18:16:56.169Z,26.95
2022-09-03T18:19:31.612Z,26.88
2022-09-03T18:22:23.170Z,26.86
2022-09-03T18:25:18.234Z,26.85
2022-09-03T18:28:10.173Z,26.83
2022-09-03T18:30:58.566Z,26.83
2022-09-03T18:33:47.433Z,26.81
2022-09-03T18:36:35.879Z,26.83
2022-09-03T18:39:31.178Z,26.84
2022-09-03T18:42:29.311Z,26.85
2022-09-03T18:45:33.262Z,26.82
2022-09-03T18:48:40.168Z,26.80
2022-09-03T18:51:39.076Z,26.78
2022-09-03T18:55:06.284Z,26.73
2022-09-03T18:58:02.897Z,26.72
2022-09-03T19:00:58.337Z,26.75
2022-09-03T19:04:08.060Z,26.75
2022-09-03T19:07:07.148Z,26.76
2022-09-03T19:10:07.251Z,26.78
2022-09-03T19:13:12.973Z,26.77
2022-09-03T19:16:06.231Z,26.76
2022-09-03T19:19:18.014Z,26.75
2022-09-03T19:22:11.272Z,26.73
2022-09-03T19:24:59.606Z,26.73
2022-09-03T19:27:59.293Z,26.72
2022-09-03T19:30:56.925Z,26.71
2022-09-03T19:33:53.404Z,26.72
2022-09-03T19:36:48.382Z,26.70
2022-09-03T19:39:54.701Z,26.68
2022-09-03T19:42:52.584Z,26.64
2022-09-03T19:45:48.757Z,26.63
2022-09-03T19:48:48.527Z,26.61
2022-09-03T19:51:40.809Z,26.60
2022-09-03T19:54:29.787Z,26.58
2022-09-03T19:57:18.657Z,26.56
2022-09-03T20:00:09.469Z,26.55
2022-09-03T20:03:00.401Z,26.56
2022-09-03T20:05:49.108Z,26.56
2022-09-03T20:08:38.672Z,26.60
2022-09-03T20:11:18.696Z,26.62
2022-09-03T20:14:07.014Z,26.62
2022-09-03T20:16:46.330Z,26.64
2022-09-03T20:19:25.501Z,26.65
2022-09-03T20:22:08.010Z,26.64
2022-09-03T20:24:50.480Z,26.65
2022-09-03T20:27:33.047Z,26.65
2022-09-03T20:30:07.877Z,26.66
2022-09-03T20:33:22.761Z,26.68
2022-09-03T20:36:05.254Z,26.68
2022-09-03T20:38:52.244Z,26.70
2022-09-03T20:41:30.316Z,26.70
2022-09-03T20:44:20.100Z,26.71
2022-09-03T20:47:05.811Z,26.72
2022-09-03T20:49:51.789Z,26.71
2022-09-03T20:52:29.472Z,26.71
2022-09-03T20:55:13.008Z,26.72
2022-09-03T20:57:54.292Z,26.73
2022-09-03T21:00:26.566Z,26.74
2022-09-03T21:03:16.512Z,26.74
2022-09-03T21:05:56.562Z,26.74
2022-09-03T21:08:46.331Z,26.73
2022-09-03T21:11:29.905Z,26.74
2022-09-03T21:14:14.640Z,26.76
2022-09-03T21:16:54.666Z,26.76
2022-09-03T21:19:42.631Z,26.76
2022-09-03T21:22:25.924Z,26.78
2022-09-03T21:24:59.935Z,26.80
2022-09-03T21:27:34.561Z,26.80
2022-09-03T21:30:08.387Z,26.81
2022-09-03T21:32:46.161Z,26.81
2022-09-03T21:35:24.026Z,26.84
2022-09-03T21:38:00.029Z,26.86
2022-09-03T21:40:33.206Z,26.86
2022-09-03T21:43:16.154Z,26.85
2022-09-03T21:45:53.165Z,26.85
2022-09-03T21:48:27.690Z,26.87
2022-09-03T21:51:02.077Z,26.86
2022-09-03T21:53:39.369Z,26.86
2022-09-03T21:56:42.044Z,26.86
2022-09-03T21:59:26.340Z,26.87
2022-09-03T22:02:08.445Z,26.87
2022-09-03T22:04:39.148Z,26.86
2022-09-03T22:07:19.380Z,26.86
2022-09-03T22:10:02.796Z,26.83
2022-09-03T22:12:40.289Z,26.86
2022-09-03T22:15:14.297Z,26.85
2022-09-03T22:17:54.528Z,26.85
2022-09-03T22:20:26.515Z,26.87
2022-09-03T22:23:03.861Z,26.89
2022-09-03T22:25:41.949Z,26.89
2022-09-03T22:28:20.290Z,26.87
2022-09-03T22:30:56.719Z,26.89
2022-09-03T22:33:37.063Z,26.87
2022-09-03T22:36:14.853Z,26.89
2022-09-03T22:39:03.966Z,26.88
2022-09-03T22:41:51.827Z,26.87
2022-09-03T22:44:40.536Z,26.86
2022-09-03T22:47:19.763Z,26.86
2022-09-03T22:49:56.475Z,26.85
2022-09-03T22:52:35.976Z,26.85
2022-09-03T22:55:14.148Z,26.83
2022-09-03T22:57:50.982Z,26.79
2022-09-03T23:00:22.276Z,26.80
2022-09-03T23:03:00.757Z,26.79
2022-09-03T23:05:36.578Z,26.84
2022-09-03T23:08:12.731Z,26.86
2022-09-03T23:11:04.264Z,26.87
2022-09-03T23:13:41.968Z,26.86
2022-09-03T23:16:22.724Z,26.86
2022-09-03T23:18:54.440Z,26.85
2022-09-03T23:21:30.223Z,26.86
2022-09-03T23:24:06.947Z,26.86
2022-09-03T23:26:42.862Z,26.84
2022-09-03T23:29:20.699Z,26.82
2022-09-03T23:31:52.905Z,26.78
2022-09-03T23:34:23.885Z,26.78
2022-09-03T23:37:35.341Z,26.77
2022-09-03T23:40:26.341Z,26.76
2022-09-03T23:43:19.964Z,26.76
2022-09-03T23:46:02.078Z,26.76
2022-09-03T23:48:43.793Z,26.76
2022-09-03T23:51:24.378Z,26.74
2022-09-03T23:54:08.725Z,26.74
2022-09-03T23:57:06.573Z,26.75
2022-09-03T23:59:55.781Z,26.74
